Time;durP1;ratioP1;P1;durP2;ratioP2;P2;SDS_P1;SDS_P2;PMS_P1;PMS_P2;Temp;Humidity;BMP_temperature;BMP_pressure;BME280_temperature;BME280_humidity;BME280_pressure;Samples;Min_cycle;Max_cycle;Signal;HPM_P1;HPM_P2
2021/03/23 00:00:35;;;;;;;18.60;9.82;;;4.50;95.70;;;;;;5085594;28;20052;-61
2021/03/23 00:03:07;;;;;;;19.48;9.32;;;4.50;95.90;;;;;;5063837;28;20035;-65
2021/03/23 00:05:32;;;;;;;17.90;9.55;;;4.50;95.90;;;;;;5086730;28;20032;-62
2021/03/23 00:07:58;;;;;;;18.98;10.05;;;4.50;96.30;;;;;;5075448;28;20206;-65
2021/03/23 00:10:27;;;;;;;17.58;9.18;;;4.50;96.60;;;;;;5079756;28;20029;-63
2021/03/23 00:12:53;;;;;;;17.25;9.20;;;4.60;95.60;;;;;;5079133;28;20039;-63
2021/03/23 00:15:20;;;;;;;17.75;9.32;;;4.60;95.70;;;;;;5088172;28;20020;-64
2021/03/23 00:17:46;;;;;;;17.75;9.57;;;4.60;95.70;;;;;;5083314;28;20098;-62
2021/03/23 00:20:16;;;;;;;17.65;9.05;;;4.50;95.80;;;;;;5073293;28;20028;-63
2021/03/23 00:22:41;;;;;;;15.77;9.53;;;4.50;95.90;;;;;;5077027;28;20036;-64
2021/03/23 00:25:09;;;;;;;17.20;9.50;;;4.50;95.70;;;;;;5083318;28;20035;-63
2021/03/23 00:27:36;;;;;;;19.80;10.27;;;4.50;95.90;;;;;;5090257;28;20024;-64
2021/03/23 00:30:04;;;;;;;19.92;9.38;;;4.50;95.90;;;;;;5083409;28;20028;-64
2021/03/23 00:32:30;;;;;;;18.35;8.95;;;4.50;96.00;;;;;;5075410;28;20101;-62
2021/03/23 00:34:55;;;;;;;16.65;9.93;;;4.50;96.10;;;;;;5094230;28;20118;-63
2021/03/23 00:37:21;;;;;;;22.40;10.30;;;4.50;95.90;;;;;;5077444;28;20035;-61
2021/03/23 00:39:47;;;;;;;23.85;9.73;;;4.60;95.90;;;;;;5085860;28;20427;-62
2021/03/23 00:42:12;;;;;;;15.75;9.60;;;4.60;95.90;;;;;;5085635;28;20393;-63
2021/03/23 00:44:38;;;;;;;18.90;9.75;;;4.50;96.00;;;;;;5094019;28;20107;-65
2021/03/23 00:47:04;;;;;;;21.08;10.30;;;4.50;96.20;;;;;;5076762;28;20032;-63
2021/03/23 00:49:30;;;;;;;22.25;10.02;;;4.50;96.20;;;;;;5082801;28;20035;-65
2021/03/23 00:51:56;;;;;;;20.90;9.88;;;4.50;96.60;;;;;;5091843;28;20031;-61
2021/03/23 00:54:22;;;;;;;18.17;10.05;;;4.50;96.60;;;;;;5089953;28;20473;-64
2021/03/23 00:56:48;;;;;;;19.85;10.00;;;4.50;96.70;;;;;;5090092;28;20052;-64
2021/03/23 00:59:14;;;;;;;21.02;11.20;;;4.50;96.90;;;;;;5102941;28;20114;-62
2021/03/23 01:01:39;;;;;;;24.60;10.93;;;4.40;97.00;;;;;;5082640;28;20046;-65
2021/03/23 01:04:05;;;;;;;21.20;9.90;;;4.40;97.20;;;;;;5095370;28;20031;-64
2021/03/23 01:06:31;;;;;;;18.23;10.18;;;4.40;97.30;;;;;;5096226;28;20510;-64
2021/03/23 01:08:56;;;;;;;21.85;10.65;;;4.40;97.40;;;;;;5095031;28;20427;-64
2021/03/23 01:11:22;;;;;;;20.75;10.23;;;4.40;97.60;;;;;;5094301;28;20028;-62
2021/03/23 01:13:48;;;;;;;17.88;10.60;;;4.40;97.80;;;;;;5092426;28;20433;-63
2021/03/23 01:16:13;;;;;;;21.08;10.18;;;4.40;97.80;;;;;;5095506;28;20031;-62
2021/03/23 01:18:39;;;;;;;18.92;10.93;;;4.40;97.70;;;;;;5095377;28;20028;-65
2021/03/23 01:21:05;;;;;;;20.52;11.15;;;4.40;98.00;;;;;;5094159;28;20103;-62
2021/03/23 01:23:31;;;;;;;18.98;9.85;;;4.40;97.50;;;;;;5083270;28;20447;-62
2021/03/23 01:25:57;;;;;;;19.58;10.77;;;4.40;97.70;;;;;;5096936;28;20063;-62
2021/03/23 01:28:23;;;;;;;20.00;9.43;;;4.40;97.50;;;;;;5114248;28;20024;-63
2021/03/23 01:30:49;;;;;;;24.50;11.85;;;4.40;97.80;;;;;;5105297;28;20432;-62
2021/03/23 01:33:15;;;;;;;18.95;9.85;;;4.40;98.00;;;;;;5103777;28;20420;-63
2021/03/23 01:35:40;;;;;;;17.95;9.68;;;4.40;98.10;;;;;;5102876;28;20073;-66
2021/03/23 01:38:07;;;;;;;22.73;10.68;;;4.30;97.90;;;;;;5110111;28;20102;-62
2021/03/23 01:40:38;;;;;;;19.70;11.32;;;4.30;98.30;;;;;;5112217;28;20034;-62
2021/03/23 01:43:06;;;;;;;22.10;12.07;;;4.30;98.60;;;;;;5089490;28;20055;-63
2021/03/23 01:45:40;;;;;;;23.75;10.90;;;4.40;98.70;;;;;;5094969;28;20028;-61
2021/03/23 01:48:22;;;;;;;24.23;12.65;;;4.30;98.90;;;;;;5113376;28;20397;-62
2021/03/23 01:50:55;;;;;;;24.88;11.43;;;4.30;99.30;;;;;;5094864;28;20032;-62
2021/03/23 01:53:31;;;;;;;27.88;11.48;;;4.30;99.40;;;;;;5093732;28;20407;-65
2021/03/23 01:55:58;;;;;;;26.15;12.20;;;4.30;99.60;;;;;;5101524;28;20054;-61
2021/03/23 01:58:24;;;;;;;24.52;13.65;;;4.30;99.70;;;;;;5105232;28;20516;-63
2021/03/23 02:00:50;;;;;;;29.15;15.27;;;4.30;99.90;;;;;;5112103;28;20035;-64
2021/03/23 02:03:18;;;;;;;25.60;13.50;;;4.40;99.90;;;;;;5093333;28;20385;-63
2021/03/23 02:05:52;;;;;;;34.53;14.93;;;4.40;99.70;;;;;;5074888;28;20035;-63
2021/03/23 02:08:18;;;;;;;29.70;15.15;;;4.40;99.90;;;;;;5095340;28;20029;-62
2021/03/23 02:10:44;;;;;;;29.25;15.48;;;4.40;99.90;;;;;;5091636;28;20036;-64
2021/03/23 02:13:10;;;;;;;29.27;15.88;;;4.30;99.90;;;;;;5096899;28;20034;-63
2021/03/23 02:15:35;;;;;;;35.22;16.20;;;4.40;99.90;;;;;;5105017;28;20030;-62
2021/03/23 02:18:21;;;;;;;34.90;16.60;;;4.40;99.90;;;;;;5092333;28;20625;-62
2021/03/23 02:21:13;;;;;;;38.15;16.63;;;4.30;99.90;;;;;;5097713;28;20093;-64
2021/03/23 02:23:50;;;;;;;32.53;16.85;;;4.40;99.90;;;;;;5097474;28;20140;-61
2021/03/23 02:26:25;;;;;;;27.67;15.15;;;4.40;99.90;;;;;;5103671;28;20104;-62
2021/03/23 02:28:59;;;;;;;30.48;16.10;;;4.40;99.90;;;;;;5101789;28;20024;-61
2021/03/23 02:31:50;;;;;;;32.85;17.50;;;4.40;99.90;;;;;;5094136;28;20044;-62
2021/03/23 02:34:19;;;;;;;33.65;19.00;;;4.40;99.90;;;;;;5095857;28;20028;-64
2021/03/23 02:36:46;;;;;;;38.25;18.98;;;4.40;99.90;;;;;;5111780;28;20157;-65
2021/03/23 02:39:15;;;;;;;40.00;19.17;;;4.40;99.90;;;;;;5107408;28;20027;-62
2021/03/23 02:41:41;;;;;;;37.70;20.17;;;4.40;99.90;;;;;;5100625;28;20046;-66
2021/03/23 02:44:07;;;;;;;37.95;19.17;;;4.40;99.90;;;;;;5102977;28;20036;-64
2021/03/23 02:46:34;;;;;;;40.55;20.70;;;4.40;99.90;;;;;;5102091;28;20032;-64
2021/03/23 02:49:00;;;;;;;36.50;21.02;;;4.40;99.90;;;;;;5102264;28;20059;-65
2021/03/23 02:51:26;;;;;;;42.42;21.13;;;4.40;99.90;;;;;;5078876;28;20032;-64
2021/03/23 02:53:52;;;;;;;41.25;21.02;;;4.40;99.90;;;;;;5093572;28;20047;-65
2021/03/23 02:56:18;;;;;;;33.03;20.02;;;4.40;99.90;;;;;;5112368;28;20035;-64
2021/03/23 02:58:45;;;;;;;37.97;21.02;;;4.40;99.90;;;;;;5110396;28;20058;-66
2021/03/23 03:01:13;;;;;;;37.75;20.63;;;4.30;99.90;;;;;;5091491;28;20028;-66
2021/03/23 03:03:39;;;;;;;41.55;22.52;;;4.40;99.90;;;;;;5107482;28;20118;-64
2021/03/23 03:06:06;;;;;;;39.58;22.58;;;4.40;99.90;;;;;;5110481;28;20063;-64
2021/03/23 03:08:32;;;;;;;38.20;21.00;;;4.30;99.90;;;;;;5096209;28;20038;-63
2021/03/23 03:10:58;;;;;;;38.90;20.58;;;4.40;99.90;;;;;;5086084;28;20107;-62
2021/03/23 03:13:24;;;;;;;39.90;20.73;;;4.40;99.90;;;;;;5103790;28;20456;-63
2021/03/23 03:15:55;;;;;;;38.15;21.05;;;4.40;99.90;;;;;;5110076;28;20023;-64
2021/03/23 03:18:21;;;;;;;39.90;20.73;;;4.40;99.90;;;;;;5111143;28;20476;-64
2021/03/23 03:20:48;;;;;;;41.30;21.45;;;4.40;99.90;;;;;;5094587;28;20035;-64
2021/03/23 03:23:14;;;;;;;35.50;19.48;;;4.40;99.90;;;;;;5112168;28;20484;-64
2021/03/23 03:25:40;;;;;;;41.78;21.60;;;4.30;99.90;;;;;;5103648;28;20048;-63
2021/03/23 03:28:07;;;;;;;42.75;21.85;;;4.30;99.90;;;;;;5097858;28;20417;-63
2021/03/23 03:30:35;;;;;;;38.40;20.80;;;4.30;99.90;;;;;;5092024;28;20024;-63
2021/03/23 03:33:01;;;;;;;41.78;21.77;;;4.20;99.90;;;;;;5101785;28;20422;-64
2021/03/23 03:35:30;;;;;;;39.13;20.10;;;4.30;99.90;;;;;;5111732;28;20031;-65
2021/03/23 03:37:56;;;;;;;36.10;19.38;;;4.30;99.90;;;;;;5092644;28;20519;-63
2021/03/23 03:40:33;;;;;;;37.35;19.75;;;4.20;99.90;;;;;;5108691;28;20436;-64
2021/03/23 03:42:58;;;;;;;37.92;20.83;;;4.20;99.90;;;;;;5093615;28;20035;-65
2021/03/23 03:45:26;;;;;;;36.85;21.13;;;4.20;99.90;;;;;;5074200;28;20161;-63
2021/03/23 03:47:53;;;;;;;37.63;21.60;;;4.30;99.90;;;;;;5091215;28;20036;-64
2021/03/23 03:50:21;;;;;;;36.35;20.02;;;4.20;99.90;;;;;;5092649;28;20146;-64
2021/03/23 03:52:47;;;;;;;38.10;21.10;;;4.20;99.90;;;;;;5098996;28;20042;-66
2021/03/23 03:55:15;;;;;;;41.10;22.38;;;4.30;99.90;;;;;;5091937;28;20047;-64
2021/03/23 03:57:40;;;;;;;40.47;20.25;;;4.30;99.90;;;;;;5093160;28;20027;-65
2021/03/23 04:00:08;;;;;;;37.75;19.75;;;4.30;99.90;;;;;;5090558;28;20139;-63
2021/03/23 04:02:33;;;;;;;39.90;19.98;;;4.20;99.90;;;;;;5089716;28;20027;-63
2021/03/23 04:04:59;;;;;;;40.03;21.70;;;4.30;99.90;;;;;;5098246;28;20028;-64
2021/03/23 04:07:24;;;;;;;35.42;19.85;;;4.30;99.90;;;;;;5098047;28;20034;-62
2021/03/23 04:09:50;;;;;;;39.42;21.65;;;4.30;99.90;;;;;;5109007;28;20053;-64
2021/03/23 04:12:16;;;;;;;35.83;20.27;;;4.30;99.90;;;;;;5073862;28;20110;-64
2021/03/23 04:14:41;;;;;;;36.88;19.50;;;4.30;99.90;;;;;;5091698;28;20028;-63
2021/03/23 04:17:07;;;;;;;40.55;21.25;;;4.30;99.90;;;;;;5098812;28;20511;-63
2021/03/23 04:19:33;;;;;;;41.40;20.55;;;4.30;99.90;;;;;;5111176;28;20031;-62
2021/03/23 04:21:59;;;;;;;32.80;17.98;;;4.30;99.90;;;;;;5110353;28;20042;-65
2021/03/23 04:24:25;;;;;;;37.13;19.92;;;4.30;99.90;;;;;;5075955;28;20085;-63
2021/03/23 04:26:51;;;;;;;38.05;20.85;;;4.30;99.90;;;;;;5096410;28;20024;-64
2021/03/23 04:29:17;;;;;;;33.78;19.38;;;4.30;99.90;;;;;;5072512;28;20107;-65
2021/03/23 04:31:44;;;;;;;38.20;21.15;;;4.30;99.90;;;;;;5102723;28;20434;-64
2021/03/23 04:34:13;;;;;;;37.17;19.45;;;4.30;99.90;;;;;;5109427;28;20024;-64
2021/03/23 04:36:39;;;;;;;40.33;21.10;;;4.20;99.90;;;;;;5092326;28;20495;-64
2021/03/23 04:39:08;;;;;;;48.03;21.27;;;4.30;99.90;;;;;;5094680;28;20034;-63
2021/03/23 04:41:33;;;;;;;38.92;19.83;;;4.30;99.90;;;;;;5103099;28;20039;-63
2021/03/23 04:43:59;;;;;;;34.35;19.17;;;4.30;99.90;;;;;;5090514;28;20032;-65
2021/03/23 04:46:27;;;;;;;37.65;19.50;;;4.30;99.90;;;;;;5091039;28;20028;-64
2021/03/23 04:48:53;;;;;;;42.97;21.10;;;4.30;99.90;;;;;;5106646;28;20031;-61
2021/03/23 04:51:21;;;;;;;37.67;20.17;;;4.20;99.90;;;;;;5091540;28;20063;-62
2021/03/23 04:53:47;;;;;;;42.63;21.52;;;4.30;99.90;;;;;;5097689;28;20034;-66
2021/03/23 04:56:43;;;;;;;39.00;21.60;;;4.30;99.90;;;;;;5110575;28;20395;-64
2021/03/23 04:59:10;;;;;;;38.92;19.80;;;4.30;99.90;;;;;;5091321;28;20269;-63
2021/03/23 05:01:37;;;;;;;40.30;21.67;;;4.30;99.90;;;;;;5091007;28;20120;-63
2021/03/23 05:04:07;;;;;;;38.58;20.83;;;4.20;99.90;;;;;;5089908;28;20016;-62
2021/03/23 05:06:33;;;;;;;41.55;22.67;;;4.20;99.90;;;;;;5106192;28;20464;-63
2021/03/23 05:08:59;;;;;;;41.33;20.67;;;4.20;99.90;;;;;;5092907;28;20137;-63
2021/03/23 05:11:28;;;;;;;46.00;21.50;;;4.20;99.90;;;;;;5096214;28;20039;-63
2021/03/23 05:13:54;;;;;;;37.55;20.83;;;4.30;99.90;;;;;;5113589;28;20035;-63
2021/03/23 05:16:21;;;;;;;47.25;21.77;;;4.20;99.90;;;;;;5094801;28;20032;-63
2021/03/23 05:18:47;;;;;;;38.78;20.77;;;4.20;99.90;;;;;;5083017;28;20422;-66
2021/03/23 05:21:13;;;;;;;39.80;20.92;;;4.20;99.90;;;;;;5101317;28;20031;-66
2021/03/23 05:23:39;;;;;;;40.97;20.88;;;4.20;99.90;;;;;;5112316;28;20031;-64
2021/03/23 05:26:06;;;;;;;42.35;21.38;;;4.20;99.90;;;;;;5113721;28;20114;-65
2021/03/23 05:28:31;;;;;;;37.30;20.27;;;4.20;99.90;;;;;;5113658;28;20039;-66
2021/03/23 05:30:58;;;;;;;39.30;19.90;;;4.20;99.90;;;;;;5109852;28;20027;-66
2021/03/23 05:33:25;;;;;;;47.13;23.42;;;4.20;99.90;;;;;;5108283;28;20146;-65
2021/03/23 05:35:53;;;;;;;40.72;21.65;;;4.20;99.90;;;;;;5093321;28;20035;-66
2021/03/23 05:38:19;;;;;;;41.95;20.88;;;4.20;99.90;;;;;;5094977;28;20035;-63
2021/03/23 05:40:48;;;;;;;46.88;22.33;;;4.20;99.90;;;;;;5074453;28;20033;-62
2021/03/23 05:43:43;;;;;;;43.60;22.63;;;4.20;99.90;;;;;;5109154;28;20106;-63
2021/03/23 05:46:32;;;;;;;41.63;22.20;;;4.30;99.90;;;;;;5101357;28;20587;-63
2021/03/23 05:49:32;;;;;;;40.55;21.67;;;4.30;99.90;;;;;;5100535;28;20023;-64
2021/03/23 05:52:05;;;;;;;37.95;20.63;;;4.30;99.90;;;;;;5093501;28;20044;-64
2021/03/23 05:54:42;;;;;;;45.88;22.92;;;4.30;99.90;;;;;;5094369;28;20085;-65
2021/03/23 05:57:27;;;;;;;45.83;22.20;;;4.30;99.90;;;;;;5093392;28;20489;-63
2021/03/23 05:59:59;;;;;;;44.72;21.88;;;4.30;99.90;;;;;;5104303;28;20066;-65
2021/03/23 06:02:31;;;;;;;46.28;22.10;;;4.40;99.90;;;;;;5098599;28;20079;-64
2021/03/23 06:05:12;;;;;;;44.40;22.30;;;4.40;99.90;;;;;;5093097;28;20043;-65
2021/03/23 06:07:39;;;;;;;41.92;21.33;;;4.40;99.90;;;;;;5095568;28;20051;-64
2021/03/23 06:10:22;;;;;;;47.95;22.92;;;4.40;99.90;;;;;;5092548;28;20032;-64
2021/03/23 06:13:05;;;;;;;41.97;21.88;;;4.40;99.90;;;;;;5093968;28;20028;-66
2021/03/23 06:15:53;;;;;;;40.13;21.55;;;4.50;99.90;;;;;;5093430;28;20073;-64
2021/03/23 06:18:31;;;;;;;39.72;21.88;;;4.50;99.90;;;;;;5083231;28;20020;-63
2021/03/23 06:21:02;;;;;;;45.20;23.40;;;4.60;99.70;;;;;;5094845;28;20039;-65
2021/03/23 06:23:39;;;;;;;48.22;23.25;;;4.60;99.00;;;;;;5107965;28;20036;-65
2021/03/23 06:26:18;;;;;;;46.10;23.00;;;4.70;98.60;;;;;;5111943;28;20032;-65
2021/03/23 06:29:09;;;;;;;40.00;21.13;;;4.80;98.00;;;;;;5112395;28;20522;-61
2021/03/23 06:32:02;;;;;;;42.85;21.52;;;4.70;97.90;;;;;;5113168;28;20369;-66
2021/03/23 06:34:34;;;;;;;46.83;21.90;;;4.80;97.90;;;;;;5069803;28;20032;-62
2021/03/23 06:37:02;;;;;;;46.33;23.13;;;4.80;98.40;;;;;;5109122;28;20051;-63
2021/03/23 06:39:31;;;;;;;43.05;23.63;;;4.80;98.20;;;;;;5106009;28;20039;-63
2021/03/23 06:42:02;;;;;;;43.07;24.60;;;4.80;97.60;;;;;;5094825;28;20044;-62
2021/03/23 06:44:40;;;;;;;45.88;22.95;;;4.80;97.70;;;;;;5097896;28;20277;-63
2021/03/23 06:47:26;;;;;;;47.10;23.02;;;4.80;97.80;;;;;;5087551;28;20024;-63
2021/03/23 06:49:52;;;;;;;41.67;21.23;;;4.90;97.60;;;;;;5084319;28;20055;-66
2021/03/23 06:52:21;;;;;;;42.78;22.52;;;4.90;97.50;;;;;;5110004;28;20052;-64
2021/03/23 06:55:07;;;;;;;48.20;24.55;;;4.90;97.10;;;;;;5112167;28;20069;-63
2021/03/23 06:57:37;;;;;;;45.28;24.20;;;5.00;97.20;;;;;;5095261;28;20515;-63
2021/03/23 07:00:15;;;;;;;45.90;22.73;;;5.00;96.90;;;;;;5097563;28;20111;-64
2021/03/23 07:02:46;;;;;;;44.08;23.05;;;5.10;96.30;;;;;;5093966;28;20423;-63
2021/03/23 07:05:18;;;;;;;46.25;24.17;;;5.10;96.60;;;;;;5100007;28;20027;-63
2021/03/23 07:08:02;;;;;;;44.95;22.45;;;5.30;95.60;;;;;;5093439;28;20024;-67
2021/03/23 07:10:32;;;;;;;44.92;22.92;;;5.30;95.70;;;;;;5095741;28;20028;-64
2021/03/23 07:12:59;;;;;;;46.97;24.90;;;5.30;95.40;;;;;;5107682;28;20027;-63
2021/03/23 07:15:27;;;;;;;44.80;22.98;;;5.40;95.10;;;;;;5110619;28;20480;-63
2021/03/23 07:17:58;;;;;;;55.78;24.58;;;5.40;95.30;;;;;;5099357;28;20515;-65
2021/03/23 07:20:44;;;;;;;40.38;22.50;;;5.50;94.40;;;;;;5088014;28;20023;-61
2021/03/23 07:23:36;;;;;;;58.55;25.13;;;5.50;94.60;;;;;;5099929;28;20509;-67
2021/03/23 07:26:28;;;;;;;41.78;23.48;;;5.60;94.70;;;;;;5088498;28;20036;-64
2021/03/23 07:29:21;;;;;;;46.60;24.05;;;5.70;94.10;;;;;;5073342;28;20035;-66
2021/03/23 07:31:59;;;;;;;43.13;23.98;;;5.80;93.00;;;;;;5091592;28;20408;-62
2021/03/23 07:34:32;;;;;;;45.80;24.33;;;5.80;93.00;;;;;;5106607;28;20027;-64
2021/03/23 07:37:03;;;;;;;44.13;24.13;;;5.90;92.60;;;;;;5094067;28;20524;-63
2021/03/23 07:39:53;;;;;;;43.60;25.00;;;5.90;92.20;;;;;;5091722;28;20036;-64
2021/03/23 07:43:00;;;;;;;42.22;22.63;;;5.90;92.70;;;;;;5093272;28;20055;-64
2021/03/23 07:45:33;;;;;;;46.50;22.63;;;5.90;92.70;;;;;;5091036;28;20082;-63
2021/03/23 07:48:10;;;;;;;44.35;23.50;;;6.00;92.60;;;;;;5090103;28;20028;-64
2021/03/23 07:50:40;;;;;;;43.67;22.83;;;6.00;92.30;;;;;;5095966;28;20027;-63
2021/03/23 07:53:18;;;;;;;43.58;23.00;;;6.10;92.00;;;;;;5086460;28;20016;-64
2021/03/23 07:55:47;;;;;;;40.60;23.00;;;6.10;91.60;;;;;;5105267;28;20027;-62
2021/03/23 07:58:50;;;;;;;50.03;24.35;;;6.20;91.50;;;;;;5106492;28;20012;-63
2021/03/23 08:01:40;;;;;;;41.97;23.27;;;6.30;91.30;;;;;;5073250;28;20040;-65
2021/03/23 08:04:16;;;;;;;43.53;23.17;;;6.40;90.60;;;;;;5091190;28;20032;-62
2021/03/23 08:06:54;;;;;;;46.97;23.60;;;6.50;90.50;;;;;;5077969;28;20021;-64
2021/03/23 08:09:26;;;;;;;44.33;22.38;;;6.60;90.30;;;;;;5094624;28;20015;-65
2021/03/23 08:12:32;;;;;;;44.95;23.85;;;6.60;90.40;;;;;;5095709;28;20035;-64
2021/03/23 08:15:06;;;;;;;43.92;22.33;;;6.60;90.50;;;;;;5008211;28;20045;-61
2021/03/23 08:17:53;;;;;;;42.25;24.50;;;6.70;90.70;;;;;;5001823;28;20037;-62
2021/03/23 08:20:37;;;;;;;41.35;22.48;;;6.80;90.30;;;;;;5067691;28;20069;-62
2021/03/23 08:23:09;;;;;;;41.75;22.88;;;6.90;90.80;;;;;;5102902;28;20489;-64
2021/03/23 08:25:49;;;;;;;40.90;22.90;;;7.00;90.50;;;;;;5090552;28;20124;-64
2021/03/23 08:28:33;;;;;;;38.60;22.20;;;7.10;90.30;;;;;;5106526;28;20508;-64
2021/03/23 08:31:02;;;;;;;40.78;23.17;;;7.20;90.50;;;;;;5089488;28;20023;-63
2021/03/23 08:33:46;;;;;;;47.83;24.08;;;7.30;91.80;;;;;;5109708;28;20077;-64
2021/03/23 08:36:30;;;;;;;41.08;21.20;;;7.40;92.00;;;;;;5105539;28;20027;-62
2021/03/23 08:39:26;;;;;;;41.30;22.20;;;7.50;92.60;;;;;;5108809;28;20024;-66
2021/03/23 08:41:56;;;;;;;38.75;20.35;;;7.50;92.30;;;;;;5053188;28;20052;-64
2021/03/23 08:44:36;;;;;;;38.58;20.23;;;7.70;84.80;;;;;;5064177;28;20032;-64
2021/03/23 08:47:12;;;;;;;37.33;20.55;;;7.60;79.80;;;;;;5100683;28;20032;-63
2021/03/23 08:49:40;;;;;;;35.72;19.38;;;7.80;81.50;;;;;;5114709;28;20031;-64
2021/03/23 08:52:18;;;;;;;40.13;20.15;;;7.90;79.20;;;;;;5112595;28;20034;-63
2021/03/23 08:54:50;;;;;;;39.72;21.60;;;7.90;78.40;;;;;;5097498;28;20032;-61
2021/03/23 08:57:16;;;;;;;34.13;19.88;;;8.00;78.20;;;;;;5111671;28;20630;-63
2021/03/23 08:59:45;;;;;;;40.97;21.30;;;8.10;77.20;;;;;;5113040;28;20040;-63
2021/03/23 09:02:11;;;;;;;35.45;19.35;;;8.10;76.30;;;;;;5087929;28;20024;-63
2021/03/23 09:04:55;;;;;;;37.60;18.83;;;8.20;75.80;;;;;;5107072;28;20392;-62
2021/03/23 09:07:25;;;;;;;28.17;16.50;;;8.20;75.40;;;;;;5090195;28;20477;-64
2021/03/23 09:09:54;;;;;;;;;;;8.30;75.00;;;;;;5109405;28;20028;-63
2021/03/23 09:12:41;;;;;;;28.63;15.65;;;8.50;74.70;;;;;;5110328;28;19911;-62
2021/03/23 09:18:02;;;;;;;29.52;15.57;;;8.70;72.80;;;;;;5095960;28;20400;-63
2021/03/23 09:20:31;;;;;;;28.27;15.88;;;8.80;72.50;;;;;;5079112;28;20039;-63
2021/03/23 09:26:06;;;;;;;33.70;16.52;;;9.00;72.10;;;;;;5101172;28;20040;-63
2021/03/23 09:28:39;;;;;;;27.63;16.55;;;9.20;70.30;;;;;;5101935;28;20057;-64
2021/03/23 09:31:17;;;;;;;26.55;15.00;;;9.20;70.80;;;;;;5111393;28;20027;-60
2021/03/23 09:33:51;;;;;;;27.23;13.82;;;9.30;69.30;;;;;;5113422;28;20047;-63
2021/03/23 09:36:18;;;;;;;24.10;14.38;;;9.40;68.10;;;;;;5093090;28;20031;-62
2021/03/23 09:38:46;;;;;;;16.95;10.82;;;9.50;68.20;;;;;;5093476;28;20461;-61
2021/03/23 09:41:21;;;;;;;18.25;8.88;;;9.70;63.50;;;;;;5107374;28;20027;-61
2021/03/23 09:43:48;;;;;;;12.07;7.90;;;9.80;61.60;;;;;;5104847;28;20028;-64
2021/03/23 09:46:22;;;;;;;13.45;8.80;;;9.70;62.20;;;;;;5107703;28;20028;-64
2021/03/23 09:48:57;;;;;;;21.35;12.35;;;9.80;62.50;;;;;;5075908;28;20063;-62
2021/03/23 09:51:22;;;;;;;25.30;13.55;;;10.00;63.30;;;;;;5093427;28;20027;-62
2021/03/23 09:53:51;;;;;;;20.05;12.45;;;10.20;63.50;;;;;;5105708;28;20031;-62
2021/03/23 09:56:24;;;;;;;20.85;13.13;;;10.20;64.80;;;;;;5112430;28;20028;-63
2021/03/23 09:58:59;;;;;;;21.15;12.27;;;10.30;63.30;;;;;;5107202;28;20051;-60
2021/03/23 10:01:25;;;;;;;20.45;11.18;;;10.50;61.70;;;;;;5097924;28;20065;-64
2021/03/23 10:03:52;;;;;;;20.80;12.07;;;10.60;60.30;;;;;;5097038;28;20112;-63
2021/03/23 10:06:25;;;;;;;19.33;11.48;;;10.50;60.70;;;;;;5096622;28;20023;-63
2021/03/23 10:09:06;;;;;;;18.10;11.30;;;10.40;60.60;;;;;;5098721;28;20040;-65
2021/03/23 10:11:36;;;;;;;18.48;10.95;;;10.30;61.10;;;;;;5094073;28;20040;-62
2021/03/23 10:14:09;;;;;;;23.23;11.77;;;10.10;61.00;;;;;;5092014;28;20032;-64
2021/03/23 10:16:36;;;;;;;19.42;11.00;;;9.90;62.20;;;;;;5105882;28;20042;-64
2021/03/23 10:19:21;;;;;;;20.08;11.07;;;9.70;62.40;;;;;;5110563;28;20028;-64
2021/03/23 10:21:49;;;;;;;18.50;10.52;;;9.60;62.90;;;;;;5075682;28;20032;-62
2021/03/23 10:24:18;;;;;;;22.33;10.98;;;;;;;;;;5098512;28;20523;-66
2021/03/23 10:26:48;;;;;;;16.58;10.93;;;9.40;62.50;;;;;;5106904;28;20015;-62
2021/03/23 10:29:31;;;;;;;16.10;10.40;;;9.50;63.40;;;;;;5099267;28;20031;-63
2021/03/23 10:31:59;;;;;;;18.23;10.65;;;9.40;63.30;;;;;;5097407;28;20278;-66
2021/03/23 10:34:28;;;;;;;17.95;11.07;;;9.40;63.90;;;;;;5098242;28;20031;-63
2021/03/23 10:36:57;;;;;;;16.80;10.90;;;9.60;63.70;;;;;;5094150;28;20038;-64
2021/03/23 10:39:47;;;;;;;17.13;10.32;;;9.60;62.30;;;;;;5098796;28;20032;-64
2021/03/23 10:42:24;;;;;;;13.05;7.72;;;9.50;62.30;;;;;;5111102;28;20036;-63
2021/03/23 10:44:51;;;;;;;9.55;6.38;;;9.50;60.00;;;;;;5111990;28;20032;-64
2021/03/23 10:47:37;;;;;;;12.55;6.28;;;9.30;59.90;;;;;;5082125;28;20024;-63
2021/03/23 10:50:25;;;;;;;9.18;5.68;;;9.20;60.40;;;;;;5107154;28;20156;-64
2021/03/23 10:52:52;;;;;;;16.23;8.52;;;9.10;60.30;;;;;;5099503;28;20465;-65
2021/03/23 10:55:31;;;;;;;13.43;8.95;;;9.00;62.40;;;;;;5099566;28;20023;-62
2021/03/23 10:58:23;;;;;;;17.45;9.50;;;8.90;63.30;;;;;;5091349;28;20028;-66
2021/03/23 11:01:11;;;;;;;20.90;10.98;;;8.90;64.20;;;;;;5099602;28;20039;-65
2021/03/23 11:03:41;;;;;;;19.10;9.75;;;8.90;64.40;;;;;;5091033;28;20044;-60
2021/03/23 11:06:29;;;;;;;17.33;9.18;;;8.90;64.80;;;;;;5074605;28;20043;-64
2021/03/23 11:08:54;;;;;;;12.88;6.90;;;9.00;64.60;;;;;;5095191;28;20095;-64
2021/03/23 11:11:20;;;;;;;8.85;5.75;;;9.20;60.80;;;;;;5102336;28;20155;-62
2021/03/23 11:13:46;;;;;;;10.55;5.47;;;9.20;58.90;;;;;;5095256;28;20032;-62
2021/03/23 11:16:18;;;;;;;9.40;5.93;;;9.30;59.50;;;;;;5090750;28;20038;-64
2021/03/23 11:18:47;;;;;;;11.43;6.72;;;9.40;61.60;;;;;;5095697;28;20055;-62
2021/03/23 11:21:17;;;;;;;10.90;5.63;;;9.50;58.40;;;;;;5111179;28;20100;-60
2021/03/23 11:23:47;;;;;;;10.13;6.32;;;9.50;59.00;;;;;;5110257;28;20127;-64
2021/03/23 11:26:27;;;;;;;9.60;5.65;;;9.60;58.70;;;;;;5101724;28;20051;-66
2021/03/23 11:28:56;;;;;;;11.02;5.57;;;9.70;58.80;;;;;;5090905;28;20101;-62
2021/03/23 11:31:30;;;;;;;8.38;5.55;;;9.70;58.90;;;;;;5105731;28;20174;-62
2021/03/23 11:33:59;;;;;;;9.18;6.22;;;9.90;56.70;;;;;;5111541;28;20019;-62
2021/03/23 11:36:26;;;;;;;10.85;5.53;;;9.80;56.90;;;;;;5096785;28;20461;-60
2021/03/23 11:38:52;;;;;;;8.90;5.60;;;9.80;57.80;;;;;;5091558;28;20541;-63
2021/03/23 11:41:23;;;;;;;9.85;5.07;;;9.90;57.20;;;;;;5093393;28;20039;-62
2021/03/23 11:43:53;;;;;;;9.85;5.60;;;9.90;56.60;;;;;;5092020;28;20065;-63
2021/03/23 11:46:39;;;;;;;7.47;5.03;;;10.00;57.00;;;;;;5110516;28;20024;-60
2021/03/23 11:49:09;;;;;;;12.25;5.72;;;10.00;56.90;;;;;;5071077;28;20392;-65
2021/03/23 11:51:47;;;;;;;9.43;5.25;;;10.00;56.40;;;;;;5110216;28;20429;-64
2021/03/23 11:54:14;;;;;;;10.02;5.95;;;10.00;56.80;;;;;;5097097;28;20032;-65
2021/03/23 11:56:39;;;;;;;9.63;5.82;;;9.80;57.30;;;;;;5095371;28;20028;-63
2021/03/23 11:59:06;;;;;;;9.52;5.57;;;9.70;57.70;;;;;;5090293;28;20415;-64
2021/03/23 12:01:31;;;;;;;9.43;6.45;;;9.60;58.60;;;;;;5099693;28;20089;-65
2021/03/23 12:03:57;;;;;;;13.05;7.20;;;9.40;58.10;;;;;;5091657;28;20519;-64
2021/03/23 12:06:51;;;;;;;13.35;7.85;;;9.40;59.10;;;;;;5097928;28;20019;-63
2021/03/23 12:09:29;;;;;;;12.13;7.78;;;9.40;59.10;;;;;;5109215;28;20034;-64
2021/03/23 12:12:16;;;;;;;9.35;5.90;;;9.30;59.40;;;;;;5107269;28;20046;-64
2021/03/23 12:14:50;;;;;;;10.73;7.25;;;9.20;59.60;;;;;;5073471;28;20058;-60
2021/03/23 12:17:18;;;;;;;12.40;7.07;;;9.20;59.40;;;;;;5092835;28;20066;-64
2021/03/23 12:19:53;;;;;;;13.65;7.10;;;9.30;59.70;;;;;;5074653;28;20434;-64
2021/03/23 12:22:19;;;;;;;9.82;6.75;;;9.40;60.00;;;;;;5095854;28;20033;-63
2021/03/23 12:24:48;;;;;;;24.20;7.00;;;9.60;58.40;;;;;;5084573;28;20055;-65
2021/03/23 12:27:15;;;;;;;12.18;6.72;;;9.70;59.00;;;;;;5096636;28;20031;-63
2021/03/23 12:29:41;;;;;;;14.88;7.72;;;9.70;58.10;;;;;;5108433;28;20027;-63
2021/03/23 12:32:10;;;;;;;15.10;8.65;;;9.70;58.60;;;;;;5092713;28;20031;-66
2021/03/23 12:34:35;;;;;;;14.82;8.02;;;9.80;58.60;;;;;;5087158;28;20032;-66
2021/03/23 12:37:01;;;;;;;15.15;8.60;;;9.70;59.30;;;;;;5092342;28;20016;-63
2021/03/23 12:39:27;;;;;;;13.82;8.63;;;9.70;58.70;;;;;;5091393;28;20089;-65
2021/03/23 12:41:52;;;;;;;13.43;8.40;;;9.60;59.40;;;;;;5092836;28;20400;-66
2021/03/23 12:44:20;;;;;;;13.63;8.10;;;9.60;59.10;;;;;;5090497;28;20031;-62
2021/03/23 12:46:46;;;;;;;11.80;7.57;;;9.60;59.70;;;;;;5105386;28;20024;-66
2021/03/23 12:49:12;;;;;;;12.48;7.13;;;9.50;59.70;;;;;;5108936;28;20069;-64
2021/03/23 12:51:40;;;;;;;17.23;8.35;;;9.60;60.40;;;;;;5095179;28;20031;-64
2021/03/23 12:54:33;;;;;;;11.32;7.18;;;9.60;58.80;;;;;;5093840;28;20026;-67
2021/03/23 12:56:59;;;;;;;12.10;7.13;;;9.50;58.60;;;;;;5112946;28;20092;-63
2021/03/23 12:59:27;;;;;;;14.23;8.27;;;9.50;59.70;;;;;;5112718;28;20047;-64
2021/03/23 13:01:54;;;;;;;15.93;7.50;;;9.50;60.10;;;;;;5105389;28;20488;-64
2021/03/23 13:04:24;;;;;;;13.77;8.05;;;9.50;59.30;;;;;;5113684;28;20051;-64
2021/03/23 13:06:51;;;;;;;15.77;8.27;;;9.50;59.60;;;;;;5114694;28;20056;-64
2021/03/23 13:09:18;;;;;;;12.15;7.72;;;9.40;60.60;;;;;;5096399;28;20020;-64